Flight Track Log - Related Links

Times and Time Zones

All times are in EDT time to prevent confusion due to time zone crossing. See the ASQ6115 flight status page for this flight to view local times or setup timezone preferences in your user account.

Time Position Orientation Groundspeed Altitude Reporting Facility
EDT Latitude Longitude Course Direction KTS MPH feet Rate Location/Type
Mon 02:54:21 PM 29.9572 -95.3392 190° South 181 208 700  Level Houston Center
Mon 02:55:16 PM 29.9233 -95.2903 129° Southeast 232 267 1,900 1,500 Climbing Houston Center
Mon 02:56:13 PM 29.8717 -95.2617 154° Southeast 258 297 3,500 2,256 Climbing Houston Center
Mon 02:57:13 PM 29.7981 -95.3006 205° Southwest 263 303 6,300 2,410 Climbing Houston Center
Mon 02:58:00 PM 29.5076 -95.4285 190° South  Level FlightAware Approximate
Mon 02:58:15 PM 29.7281 -95.3381 205° Southwest 272 313 8,400  Level Houston Center
Mon 02:59:00 PM 29.4125 -95.4475 190° South  Level FlightAware Approximate
Mon 02:59:19 PM 29.6494 -95.3575 192° South 283 326 10,300  Level Houston Center
Mon 03:00:21 PM 29.5658 -95.3792 193° South 308 354 11,000 576 Climbing Houston Center
Mon 03:01:24 PM 29.4717 -95.4031 192° South 342 394 11,500 1,355 Climbing Houston Center
Mon 03:02:25 PM 29.3756 -95.4361 197° South 359 413 13,800 2,390 Climbing Houston Center
Mon 03:03:27 PM 29.2933 -95.5083 217° Southwest 314 361 16,400 1,645 Climbing Houston Center
Mon 03:04:29 PM 29.2228 -95.5775 221° Southwest 331 381 17,200 720 Climbing Houston Center
Mon 03:05:32 PM 29.1458 -95.6517 220° Southwest 358 412 17,900 672 Climbing Houston Center
Mon 03:06:34 PM 29.0625 -95.7272 218° Southwest 379 436 18,600 774 Climbing Houston Center
Mon 03:07:36 PM 28.9764 -95.8050 218° Southwest 392 451 19,500 871 Climbing Houston Center
Mon 03:08:38 PM 28.8883 -95.8833 218° Southwest 401 461 20,400 871 Climbing Houston Center
Mon 03:09:40 PM 28.7914 -95.9697 218° Southwest 406 467 21,300 864 Climbing Houston Center
Mon 03:10:43 PM 28.7031 -96.0503 219° Southwest 407 468 22,200 912 Climbing Houston Center
Mon 03:11:45 PM 28.5936 -96.1469 218° Southwest 412 474 23,200 919 Climbing Houston Center
Mon 03:12:47 PM 28.5031 -96.2275 218° Southwest 412 474 24,100 919 Climbing Houston Center
Mon 03:13:49 PM 28.4119 -96.3083 218° Southwest 413 475 25,100 968 Climbing Houston Center
Mon 03:14:51 PM 28.3219 -96.3889 218° Southwest 412 474 26,100 919 Climbing Houston Center
Mon 03:15:53 PM 28.2325 -96.4661 217° Southwest 406 467 27,000 919 Climbing Houston Center
Mon 03:16:55 PM 28.1442 -96.5444 218° Southwest 402 463 28,000 919 Climbing Houston Center
Mon 03:17:57 PM 28.0572 -96.6219 218° Southwest 398 458 28,900 1,008 Climbing Houston Center
Mon 03:19:00 PM 27.9539 -96.7131 218° Southwest 393 452 30,100 1,056 Climbing Houston Center
Mon 03:20:02 PM 27.8678 -96.7881 218° Southwest 391 450 31,100 968 Climbing Houston Center
Mon 03:21:04 PM 27.7822 -96.8625 218° Southwest 389 448 32,100 927 Climbing Houston Center
Mon 03:22:05 PM 27.6961 -96.9356 217° Southwest 387 445 33,000 878 Climbing Houston Center
Mon 03:23:07 PM 27.6203 -97.0203 225° Southwest 385 443 33,900 480 Climbing Houston Center
Mon 03:24:10 PM 27.5397 -97.1275 230° Southwest 389 448 34,000 48 Climbing Houston Center
Mon 03:25:12 PM 27.4642 -97.2256 229° Southwest 405 466 34,000 -48 Level Houston Center
Mon 03:26:14 PM 27.3875 -97.3275 230° Southwest 420 483 33,900 -1,113 Descending Houston Center
Mon 03:27:16 PM 27.3097 -97.4272 229° Southwest 424 488 31,700 -2,516 Descending Houston Center
Mon 03:28:18 PM 27.2350 -97.5311 231° Southwest 428 493 28,700 -3,435 Descending Houston Center
Mon 03:29:20 PM 27.1436 -97.6550 230° Southwest 428 493 24,600 -3,435 Descending Houston Center
Mon 03:30:22 PM 27.0703 -97.7583 231° Southwest 404 465 21,600 -2,614 Descending Houston Center
Mon 03:31:01 PM 27.0231 -97.8208 230° Southwest 417 480 20,200 -1,935 Descending Houston Center
Mon 03:31:24 PM 26.9956 -97.8619 233° Southwest 422 486 19,600 -1,535 Descending Houston Center
Mon 03:32:27 PM 26.9261 -97.9792 236° Southwest 421 484 18,000 -1,488 Descending Houston Center
Mon 03:33:29 PM 26.8633 -98.0683 232° Southwest 408 470 16,500 -1,373 Descending Houston Center
Mon 03:33:50 PM 26.8194 -98.1036 216° Southwest 404 465 16,100 -1,645 Descending Houston Center
Mon 03:34:31 PM 26.7586 -98.1431 210° Southwest 379 436 14,800 -2,239 Descending Houston Center
Mon 03:34:57 PM 26.7167 -98.1661 206° Southwest 363 418 13,600 -2,323 Descending Houston Center
Mon 03:35:33 PM 26.6681 -98.1889 203° Southwest 363 418 12,400 -1,898 Descending Houston Center
Mon 03:36:35 PM 26.5731 -98.2372 204° Southwest 352 405 10,500 -1,500 Descending Houston Center
Mon 03:37:37 PM 26.4994 -98.2783 207° Southwest 308 354 9,300 -1,887 Descending Houston Center
Mon 03:38:39 PM 26.4294 -98.3183 207° Southwest 270 311 6,600 -2,468 Descending Houston Center
Mon 03:39:41 PM 26.3672 -98.3556 208° Southwest 258 297 4,200 -2,129 Descending Houston Center
Mon 03:40:43 PM 26.2989 -98.3531 178° South 244 281 2,200 -1,103 Descending Houston Center
Mon 03:41:57 PM 26.2456 -98.3064 142° Southeast 180 207 1,700 -405 Descending Houston Center

Login

Don't have an account? Register now (free) for customized features, flight alerts, and more!